Time;durP1;ratioP1;P1;durP2;ratioP2;P2;SDS_P1;SDS_P2;PMS_P1;PMS_P2;Temp;Humidity;BMP_temperature;BMP_pressure;BME280_temperature;BME280_humidity;BME280_pressure;Samples;Min_cycle;Max_cycle;Signal;HPM_P1;HPM_P2
2022/02/16 00:02:43;;;;;;;3.28;2.35;;;;;;;7.01;78.86;98904.56;4996921;28;20108;-65
2022/02/16 00:05:28;;;;;;;2.97;2.33;;;;;;;7.03;78.76;98907.16;4996774;28;20045;-65
2022/02/16 00:08:12;;;;;;;2.40;1.85;;;;;;;7.03;78.72;98906.31;4996931;28;20634;-65
2022/02/16 00:10:56;;;;;;;2.53;2.33;;;;;;;7.04;78.69;98903.72;4996724;28;20125;-65
2022/02/16 00:13:40;;;;;;;2.55;2.35;;;;;;;7.06;78.80;98886.59;4995790;28;20177;-65
2022/02/16 00:16:23;;;;;;;2.25;2.05;;;;;;;7.05;79.11;98882.28;4996551;28;20046;-65
2022/02/16 00:19:07;;;;;;;2.33;2.13;;;;;;;7.04;78.83;98884.84;4996618;28;20053;-65
2022/02/16 00:21:52;;;;;;;2.30;2.15;;;;;;;7.04;78.82;98875.38;4995669;28;20516;-65
2022/02/16 00:24:36;;;;;;;;;;;;;;;7.05;79.25;98865.97;4995821;28;20101;-65
2022/02/16 00:27:20;;;;;;;2.53;2.33;;;;;;;7.04;78.91;98854.78;4995704;28;20293;-65
2022/02/16 00:30:05;;;;;;;2.20;1.83;;;;;;;7.01;79.01;98844.44;4996426;28;20050;-65
2022/02/16 00:32:49;;;;;;;5.03;2.75;;;;;;;7.03;79.22;98837.59;4995487;28;20057;-65
2022/02/16 00:35:34;;;;;;;2.05;1.92;;;;;;;7.04;79.44;98843.63;4995467;28;20045;-65
2022/02/16 00:38:18;;;;;;;2.40;2.20;;;;;;;7.05;79.05;98840.19;4996489;28;20053;-65
2022/02/16 00:41:02;;;;;;;2.22;2.03;;;;;;;7.05;79.10;98824.75;4996147;28;20053;-66
2022/02/16 00:43:46;;;;;;;;;;;;;;;7.06;79.08;98823.91;4996637;28;20516;-65
2022/02/16 00:46:30;;;;;;;2.35;2.13;;;;;;;7.04;79.15;98826.44;4996430;28;19981;-65
2022/02/16 00:49:16;;;;;;;4.82;2.70;;;;;;;7.04;78.94;98818.72;4995182;28;20081;-65
2022/02/16 00:52:01;;;;;;;5.47;2.45;;;;;;;7.04;79.07;98821.28;4996079;28;20105;-65
2022/02/16 00:54:45;;;;;;;3.10;2.55;;;;;;;7.07;79.07;98812.75;4996028;28;20049;-65
2022/02/16 00:57:29;;;;;;;3.10;2.78;;;;;;;7.07;78.96;98810.16;4995814;28;20053;-65
2022/02/16 01:00:14;;;;;;;3.63;2.80;;;;;;;7.07;79.47;98810.16;4995034;28;20169;-65
2022/02/16 01:02:58;;;;;;;3.20;2.63;;;;;;;7.07;79.56;98792.13;4994271;28;20069;-66
2022/02/16 01:05:42;;;;;;;;;;;;;;;7.07;79.73;98795.56;4994868;28;20053;-65
2022/02/16 01:08:29;;;;;;;4.70;2.72;;;;;;;7.06;79.32;98788.69;4995849;28;20014;-65
2022/02/16 01:11:14;;;;;;;2.65;2.42;;;;;;;7.07;79.49;98784.41;4995697;28;20052;-65
2022/02/16 01:13:57;;;;;;;3.00;2.70;;;;;;;7.08;79.48;98793.88;4994796;28;20520;-65
2022/02/16 01:16:41;;;;;;;4.43;2.70;;;;;;;7.08;78.99;98786.13;4995048;28;20045;-65
2022/02/16 01:19:31;;;;;;;2.83;2.55;;;;;;;7.09;79.43;98796.44;5083194;27;2045894;-65
2022/02/16 01:24:41;;;;;;;3.08;2.75;;;;;;;7.11;79.57;98799.03;5132182;27;20855;-65
2022/02/16 01:27:25;;;;;;;2.58;2.38;;;;;;;7.10;79.46;98795.59;5116828;28;20050;-65
2022/02/16 01:30:10;;;;;;;2.92;2.72;;;;;;;7.11;79.49;98778.41;5131797;28;20039;-65
2022/02/16 01:32:53;;;;;;;2.72;2.50;;;;;;;7.12;79.50;98778.44;5131866;28;20104;-65
2022/02/16 01:35:37;;;;;;;2.90;1.98;;;;;;;7.10;79.29;98758.66;5131736;28;20080;-65
2022/02/16 01:38:21;;;;;;;2.83;2.63;;;;;;;7.12;79.52;98749.22;5116147;28;20447;-65
2022/02/16 01:41:05;;;;;;;3.92;2.78;;;;;;;7.12;79.81;98755.25;5131914;28;20069;-65
2022/02/16 01:43:51;;;;;;;3.55;2.78;;;;;;;7.12;79.38;98756.94;5131381;28;20398;-65
2022/02/16 01:46:55;;;;;;;3.58;3.05;;;;;;;7.13;79.88;98743.22;5116471;28;20053;-65
2022/02/16 01:49:40;;;;;;;3.00;2.75;;;;;;;7.12;79.63;98746.66;5131562;28;20165;-65
2022/02/16 01:52:24;;;;;;;2.97;2.40;;;;;;;7.13;80.08;98740.66;5116386;28;20046;-65
2022/02/16 01:55:12;;;;;;;2.58;2.38;;;;;;;7.13;79.56;98744.09;5131456;28;20050;-65
2022/02/16 01:57:58;;;;;;;2.58;2.38;;;;;;;7.13;79.45;98736.38;5116069;28;20096;-65
2022/02/16 02:00:44;;;;;;;2.80;2.60;;;;;;;7.15;79.77;98736.38;5115904;28;20050;-65
2022/02/16 02:03:28;;;;;;;2.83;2.63;;;;;;;7.14;79.86;98745.81;5115633;28;20585;-65
2022/02/16 02:06:12;;;;;;;2.40;2.25;;;;;;;7.15;79.78;98744.09;5115938;28;20050;-65
2022/02/16 02:08:56;;;;;;;3.15;2.40;;;;;;;7.15;79.71;98746.69;5115950;28;20051;-66
2022/02/16 02:11:40;;;;;;;2.13;2.03;;;;;;;7.13;79.54;98741.53;5131190;28;20089;-65
2022/02/16 02:14:25;;;;;;;2.30;2.13;;;;;;;7.15;79.86;98726.06;5131235;28;20054;-65
2022/02/16 02:17:09;;;;;;;2.72;2.53;;;;;;;7.13;80.33;98730.34;5131290;28;20045;-64
2022/02/16 02:19:53;;;;;;;;;;;;;;;7.14;80.00;98717.50;5115636;28;20113;-65
2022/02/16 02:22:37;;;;;;;2.25;1.98;;;;;;;7.13;79.87;98715.75;5130515;28;19923;-65
2022/02/16 02:25:22;;;;;;;2.90;2.53;;;;;;;7.14;79.91;98708.88;5130656;28;20058;-65
2022/02/16 02:28:06;;;;;;;2.22;2.08;;;;;;;7.13;79.93;98699.41;5115545;28;20062;-65
2022/02/16 02:30:50;;;;;;;1.95;1.85;;;;;;;7.14;80.15;98696.00;5131018;28;20041;-65
2022/02/16 02:33:37;;;;;;;2.35;2.20;;;;;;;7.16;80.12;98690.00;5130478;28;20551;-65
2022/02/16 02:36:24;;;;;;;2.50;2.30;;;;;;;7.17;80.12;98683.13;5101686;28;20096;-65
2022/02/16 02:39:08;;;;;;;2.55;2.35;;;;;;;7.15;80.15;98670.25;5116915;28;20043;-65
2022/02/16 02:41:52;;;;;;;2.38;2.17;;;;;;;7.16;80.08;98669.38;5102188;28;20046;-65
2022/02/16 02:44:39;;;;;;;2.13;2.03;;;;;;;7.15;80.22;98659.06;5116379;28;20092;-65
2022/02/16 02:47:23;;;;;;;1.90;1.80;;;;;;;7.16;79.95;98653.06;5101647;28;20551;-65
2022/02/16 02:50:09;;;;;;;2.47;2.28;;;;;;;7.19;80.08;98653.09;5116883;28;20050;-65
2022/02/16 02:52:56;;;;;;;2.00;1.90;;;;;;;7.19;80.30;98639.34;5116717;28;20096;-65
2022/02/16 02:55:40;;;;;;;2.35;2.17;;;;;;;7.17;80.08;98647.06;5116695;28;20394;-66
2022/02/16 02:58:24;;;;;;;1.95;1.85;;;;;;;7.20;80.00;98633.34;5116514;28;20047;-65
2022/02/16 03:01:08;;;;;;;2.35;2.15;;;;;;;7.20;80.31;98625.59;5116416;28;20081;-65
2022/02/16 03:03:51;;;;;;;2.42;2.22;;;;;;;7.19;80.04;98621.28;5130060;27;20071;-66
2022/02/16 03:06:35;;;;;;;2.78;2.58;;;;;;;7.20;79.95;98629.06;5116296;28;20042;-66
2022/02/16 03:09:19;;;;;;;2.10;2.00;;;;;;;7.18;80.34;98615.28;5116165;28;20458;-65
2022/02/16 03:12:03;;;;;;;2.30;2.20;;;;;;;7.19;79.81;98604.13;5116569;28;20452;-65
2022/02/16 03:14:50;;;;;;;1.80;1.70;;;;;;;7.20;80.33;98607.56;5101068;28;20082;-65
2022/02/16 03:17:35;;;;;;;2.42;2.28;;;;;;;7.21;80.28;98597.28;5100979;28;20038;-65
2022/02/16 03:20:19;;;;;;;2.45;2.20;;;;;;;7.21;80.49;98596.41;5100946;28;20497;-65
2022/02/16 03:23:03;;;;;;;;;;;;;;;7.20;80.47;98592.97;5100767;28;20100;-65
2022/02/16 03:25:47;;;;;;;2.55;2.35;;;;;;;7.19;80.18;98583.53;5116049;28;19923;-65
2022/02/16 03:28:31;;;;;;;2.47;2.28;;;;;;;7.18;80.54;98576.66;5100684;28;20470;-65
2022/02/16 03:31:15;;;;;;;2.53;2.33;;;;;;;7.20;80.15;98581.78;5115832;28;20398;-65
2022/02/16 03:33:59;;;;;;;2.75;2.55;;;;;;;7.21;80.40;98586.97;5100349;28;20049;-65
2022/02/16 03:36:44;;;;;;;;;;;;;;;7.21;80.47;98584.41;5116489;28;20077;-65
2022/02/16 03:39:27;;;;;;;2.92;2.72;;;;;;;7.21;80.24;98576.66;5115654;28;19922;-65
2022/02/16 03:42:14;;;;;;;2.47;2.33;;;;;;;7.23;80.30;98574.09;5100477;28;20501;-64
2022/02/16 03:44:57;;;;;;;2.50;2.30;;;;;;;7.22;80.79;98565.50;5129668;27;20137;-66
2022/02/16 03:47:41;;;;;;;2.53;2.33;;;;;;;7.23;80.59;98559.50;5114489;28;20410;-65
2022/02/16 03:50:25;;;;;;;2.30;2.20;;;;;;;7.24;80.37;98552.63;5100302;28;20461;-65
2022/02/16 03:53:09;;;;;;;3.13;2.85;;;;;;;7.24;80.26;98548.31;5115002;28;20578;-65
2022/02/16 03:55:53;;;;;;;2.60;2.40;;;;;;;7.24;80.66;98553.47;5115388;28;20403;-65
2022/02/16 03:58:37;;;;;;;3.20;2.47;;;;;;;7.25;80.48;98565.50;5115408;28;20069;-65
2022/02/16 04:01:21;;;;;;;3.03;2.60;;;;;;;7.28;80.37;98567.25;5115057;28;20055;-65
2022/02/16 04:04:05;;;;;;;2.35;2.15;;;;;;;7.27;80.59;98566.38;5114962;28;20050;-65
2022/02/16 04:06:51;;;;;;;2.83;2.63;;;;;;;7.26;80.29;98556.91;5115276;28;20104;-65
2022/02/16 04:09:35;;;;;;;6.13;2.55;;;;;;;7.29;80.31;98564.69;5099933;28;20062;-65
2022/02/16 04:12:19;;;;;;;2.58;2.38;;;;;;;7.30;80.21;98561.25;5100034;28;20066;-64
2022/02/16 04:15:04;;;;;;;2.35;2.15;;;;;;;7.28;80.87;98573.25;5099755;28;20143;-65
2022/02/16 04:17:48;;;;;;;4.40;2.17;;;;;;;7.29;80.38;98548.38;5099757;28;20076;-65
2022/02/16 04:20:32;;;;;;;2.20;2.10;;;;;;;7.30;80.60;98538.06;5115069;28;20555;-65
2022/02/16 04:23:16;;;;;;;5.20;2.33;;;;;;;7.30;80.54;98526.91;5114492;28;20508;-65
2022/02/16 04:25:59;;;;;;;3.85;2.28;;;;;;;7.31;80.70;98515.72;5114897;28;20046;-65
2022/02/16 04:28:43;;;;;;;2.40;1.83;;;;;;;7.30;80.50;98517.44;5114864;28;20047;-65
2022/02/16 04:31:27;;;;;;;3.45;2.05;;;;;;;7.31;80.75;98516.59;5099746;28;20069;-65
2022/02/16 04:34:12;;;;;;;3.13;2.13;;;;;;;7.31;80.51;98495.97;5114858;28;20054;-65
2022/02/16 04:36:56;;;;;;;;;;;;;;;7.31;80.74;98495.97;5114873;28;20406;-65
2022/02/16 04:39:40;;;;;;;2.35;2.20;;;;;;;7.31;80.75;98490.81;5114643;28;19918;-65
2022/02/16 04:42:25;;;;;;;1.90;1.80;;;;;;;7.31;80.76;98489.97;5114737;28;20050;-65
2022/02/16 04:45:09;;;;;;;;;;;;;;;7.31;80.90;98472.78;5099751;28;20440;-65
2022/02/16 04:47:53;;;;;;;2.50;1.75;;;;;;;7.31;80.74;98467.63;5114140;28;20320;-65
2022/02/16 04:50:36;;;;;;;2.47;2.28;;;;;;;7.31;80.95;98484.81;5099296;28;20142;-65
2022/02/16 04:53:20;;;;;;;2.17;1.98;;;;;;;7.32;80.65;98471.03;5114572;28;20410;-65
2022/02/16 04:56:06;;;;;;;2.85;2.13;;;;;;;7.34;80.49;98468.50;5114580;28;20057;-65
2022/02/16 04:58:50;;;;;;;1.92;1.77;;;;;;;7.32;80.73;98453.88;5113951;28;20046;-65
2022/02/16 05:01:34;;;;;;;1.92;1.83;;;;;;;7.33;80.66;98452.16;5099081;28;20046;-65
2022/02/16 05:04:18;;;;;;;3.55;2.17;;;;;;;7.35;80.81;98465.06;5114217;28;20047;-65
2022/02/16 05:07:02;;;;;;;1.88;1.77;;;;;;;7.35;80.70;98455.59;5098973;28;20100;-65
2022/02/16 05:09:49;;;;;;;2.47;2.20;;;;;;;7.35;80.89;98457.31;5114088;28;20567;-65
2022/02/16 05:12:35;;;;;;;1.85;1.75;;;;;;;7.35;80.97;98468.47;5114095;28;20046;-65
2022/02/16 05:15:19;;;;;;;1.88;1.77;;;;;;;7.36;80.89;98454.75;5098919;28;20078;-65
2022/02/16 05:18:03;;;;;;;2.00;1.90;;;;;;;7.36;80.67;98452.16;5114180;28;20081;-65
2022/02/16 05:20:46;;;;;;;1.83;1.73;;;;;;;7.37;80.97;98458.19;5098391;28;20406;-65
2022/02/16 05:23:30;;;;;;;2.35;2.15;;;;;;;7.38;80.93;98439.31;5113654;28;20504;-65
2022/02/16 05:26:15;;;;;;;2.33;2.13;;;;;;;7.38;81.05;98444.44;5114252;28;20085;-65
2022/02/16 05:28:59;;;;;;;2.10;1.90;;;;;;;7.40;81.03;98447.88;5114138;28;20062;-65
2022/02/16 05:31:43;;;;;;;1.80;1.70;;;;;;;7.39;80.84;98443.59;5114020;28;20059;-65
2022/02/16 05:34:27;;;;;;;1.90;1.65;;;;;;;7.39;81.02;98435.88;5113635;28;20054;-65
2022/02/16 05:37:11;;;;;;;2.25;2.13;;;;;;;7.41;81.02;98421.25;5113764;28;20084;-65
2022/02/16 05:39:55;;;;;;;2.05;1.95;;;;;;;7.42;80.78;98417.81;5114141;28;20112;-65
2022/02/16 05:42:39;;;;;;;1.80;1.70;;;;;;;7.41;81.42;98421.25;5113983;28;20047;-65
2022/02/16 05:45:25;;;;;;;2.00;1.90;;;;;;;7.39;80.88;98423.81;5113705;28;20047;-65
2022/02/16 05:48:10;;;;;;;1.58;1.48;;;;;;;7.42;81.07;98389.44;5113808;28;20069;-66
2022/02/16 05:50:53;;;;;;;;;;;;;;;7.43;81.10;98397.22;5114268;28;20046;-65
2022/02/16 05:53:37;;;;;;;2.65;2.47;;;;;;;7.40;80.97;98386.88;5113998;28;19933;-65
2022/02/16 05:56:21;;;;;;;2.78;2.58;;;;;;;7.42;81.03;98386.88;5113480;28;20085;-65
2022/02/16 05:59:06;;;;;;;2.10;1.88;;;;;;;7.42;80.88;98381.72;5113595;28;20058;-65
2022/02/16 06:01:50;;;;;;;3.30;2.10;;;;;;;7.43;81.17;98365.41;5098542;28;20055;-65
2022/02/16 06:04:35;;;;;;;5.57;2.10;;;;;;;7.43;81.13;98368.84;5113507;28;20630;-65
2022/02/16 06:07:18;;;;;;;2.00;1.90;;;;;;;7.42;81.59;98356.81;5098465;28;20097;-65
2022/02/16 06:10:03;;;;;;;2.72;2.03;;;;;;;7.44;81.15;98356.81;5115311;28;20042;-65
2022/02/16 06:12:47;;;;;;;2.67;1.98;;;;;;;7.44;81.62;98357.69;5117388;28;20101;-66
2022/02/16 06:15:31;;;;;;;2.33;2.00;;;;;;;7.45;81.49;98348.22;5117233;28;20052;-65
2022/02/16 06:18:15;;;;;;;2.58;1.58;;;;;;;7.45;81.46;98343.94;5102070;28;20054;-65
2022/02/16 06:20:59;;;;;;;;;;;;;;;7.46;81.74;98331.91;5117959;28;20502;-65
2022/02/16 06:23:44;;;;;;;2.10;2.00;;;;;;;7.46;81.20;98319.88;5116940;28;19923;-65
2022/02/16 06:26:29;;;;;;;2.35;1.60;;;;;;;7.46;81.65;98306.13;5117165;28;20559;-65
2022/02/16 06:29:12;;;;;;;1.80;1.70;;;;;;;7.48;81.37;98307.00;5102055;28;20059;-65
2022/02/16 06:31:57;;;;;;;;;;;;;;;7.46;81.91;98316.44;5117059;28;20050;-66
2022/02/16 06:34:43;;;;;;;2.33;2.13;;;;;;;7.47;81.39;98294.97;5117049;28;19934;-66
2022/02/16 06:37:28;;;;;;;1.90;1.77;;;;;;;7.49;81.47;98303.56;5130692;27;20124;-65
2022/02/16 06:40:13;;;;;;;2.25;2.15;;;;;;;7.51;81.27;98300.97;5117395;28;20042;-65
2022/02/16 06:42:57;;;;;;;2.28;2.17;;;;;;;7.49;81.70;98300.97;5116461;28;20055;-64
2022/02/16 06:45:41;;;;;;;1.90;1.80;;;;;;;7.50;81.46;98297.53;5116884;28;20046;-65
2022/02/16 06:48:25;;;;;;;;;;;;;;;7.51;82.07;98298.38;5117128;28;20501;-65
2022/02/16 06:51:09;;;;;;;2.58;1.63;;;;;;;7.52;81.72;98294.94;5116929;28;20389;-65
2022/02/16 06:53:56;;;;;;;1.83;1.73;;;;;;;7.53;81.51;98309.56;5101619;28;20086;-65
2022/02/16 06:56:40;;;;;;;2.20;1.75;;;;;;;7.54;81.37;98299.28;5116480;28;20096;-65
2022/02/16 06:59:24;;;;;;;2.08;1.98;;;;;;;7.56;81.38;98289.78;5116176;28;20051;-67
2022/02/16 07:02:08;;;;;;;1.88;1.77;;;;;;;7.56;81.61;98287.22;5101253;28;20515;-65
2022/02/16 07:04:52;;;;;;;2.00;1.90;;;;;;;7.59;81.40;98279.47;5116723;28;20051;-65
2022/02/16 07:07:36;;;;;;;1.67;1.58;;;;;;;7.59;81.70;98304.41;5116670;28;20115;-66
2022/02/16 07:10:20;;;;;;;2.08;1.98;;;;;;;7.58;81.77;98295.81;5116366;28;20504;-65
2022/02/16 07:13:06;;;;;;;2.22;2.03;;;;;;;7.62;81.42;98282.06;5101173;28;20096;-65
2022/02/16 07:15:53;;;;;;;1.95;1.85;;;;;;;7.61;81.20;98302.72;5116252;28;20047;-65
2022/02/16 07:18:40;;;;;;;1.80;1.70;;;;;;;7.62;81.51;98292.38;5101003;28;20160;-66
2022/02/16 07:21:24;;;;;;;1.75;1.65;;;;;;;7.60;81.57;98296.66;5100865;28;20046;-65
2022/02/16 07:24:08;;;;;;;1.60;1.50;;;;;;;7.64;81.25;98294.09;5100421;28;20505;-65
2022/02/16 07:26:52;;;;;;;1.58;1.48;;;;;;;7.63;81.75;98285.50;5116307;28;20093;-65
2022/02/16 07:29:37;;;;;;;3.75;1.70;;;;;;;7.64;81.84;98296.69;5100576;28;20406;-65
2022/02/16 07:32:20;;;;;;;2.05;1.95;;;;;;;7.65;81.72;98282.94;5116110;28;20069;-65
2022/02/16 07:35:10;;;;;;;1.67;1.58;;;;;;;7.66;81.52;98290.66;5115973;28;20090;-65
2022/02/16 07:37:55;;;;;;;1.48;1.40;;;;;;;7.68;81.52;98298.41;5100393;28;20525;-65
2022/02/16 07:40:39;;;;;;;1.52;1.42;;;;;;;7.70;81.49;98305.28;5115947;28;20042;-64
2022/02/16 07:43:23;;;;;;;1.90;1.80;;;;;;;7.70;81.32;98292.38;5115466;28;20088;-66
2022/02/16 07:46:09;;;;;;;1.88;1.77;;;;;;;7.70;81.39;98287.22;5115566;28;20069;-65
2022/02/16 07:48:53;;;;;;;2.65;1.90;;;;;;;7.72;81.25;98276.91;5115721;28;20089;-66
2022/02/16 07:51:40;;;;;;;1.80;1.70;;;;;;;7.72;81.29;98290.66;5099979;28;20074;-66
2022/02/16 07:54:24;;;;;;;1.58;1.48;;;;;;;7.73;81.71;98281.19;5100417;28;20051;-65
2022/02/16 07:57:08;;;;;;;1.98;1.88;;;;;;;7.72;81.23;98295.81;5115654;28;20055;-65
2022/02/16 07:59:55;;;;;;;2.42;1.75;;;;;;;7.74;81.66;98293.22;5115684;28;20096;-65
2022/02/16 08:02:39;;;;;;;1.63;1.52;;;;;;;7.74;81.46;98278.63;5100086;28;20112;-65
2022/02/16 08:05:24;;;;;;;1.85;1.70;;;;;;;7.74;81.44;98294.09;5115439;28;20116;-65
2022/02/16 08:08:09;;;;;;;1.65;1.55;;;;;;;7.77;81.64;98300.97;5100083;28;20425;-65
2022/02/16 08:10:53;;;;;;;1.70;1.60;;;;;;;7.77;81.21;98303.53;5114858;28;20089;-65
2022/02/16 08:13:37;;;;;;;2.70;2.47;;;;;;;7.77;81.32;98303.53;5114993;28;20047;-65
2022/02/16 08:16:21;;;;;;;4.38;1.83;;;;;;;7.78;81.54;98310.44;5099912;28;20563;-65
2022/02/16 08:19:10;;;;;;;1.67;1.58;;;;;;;7.77;81.38;98291.53;5115302;28;20116;-65
2022/02/16 08:21:56;;;;;;;2.95;1.80;;;;;;;7.78;81.63;98293.22;5099559;28;20038;-66
2022/02/16 08:24:40;;;;;;;1.95;1.85;;;;;;;7.80;81.51;98282.03;5114770;28;20043;-65
2022/02/16 08:27:23;;;;;;;1.88;1.77;;;;;;;7.80;81.62;98275.19;5099852;28;20086;-65
2022/02/16 08:30:12;;;;;;;2.85;1.70;;;;;;;7.80;81.59;98280.34;5099483;28;20093;-65
2022/02/16 08:32:56;;;;;;;1.95;1.70;;;;;;;7.81;81.43;98310.44;5099008;28;20448;-66
2022/02/16 08:35:40;;;;;;;1.65;1.55;;;;;;;7.81;81.56;98313.00;5099762;28;20100;-65
2022/02/16 08:38:23;;;;;;;1.90;1.80;;;;;;;7.83;81.67;98307.84;5114664;28;20515;-65
2022/02/16 08:41:09;;;;;;;1.90;1.80;;;;;;;7.82;82.00;98309.56;5099456;28;20054;-66
2022/02/16 08:43:53;;;;;;;2.20;1.40;;;;;;;7.83;81.92;98331.94;5099191;28;20042;-65
2022/02/16 08:46:37;;;;;;;1.58;1.48;;;;;;;7.84;81.90;98331.06;5114513;28;20088;-65
2022/02/16 08:49:20;;;;;;;1.73;1.63;;;;;;;7.85;81.52;98337.06;5114628;28;20137;-65
2022/02/16 08:52:05;;;;;;;2.00;1.90;;;;;;;7.84;81.76;98325.03;5113968;28;20456;-65
2022/02/16 08:54:48;;;;;;;2.30;2.10;;;;;;;7.86;81.62;98324.16;5114265;28;20054;-65
2022/02/16 08:57:32;;;;;;;2.47;2.03;;;;;;;7.86;81.87;98324.16;5114351;28;20468;-66
2022/02/16 09:00:16;;;;;;;1.73;1.63;;;;;;;7.89;81.73;98333.66;5099611;28;20050;-66
2022/02/16 09:03:01;;;;;;;;;;;;;;;7.88;81.69;98337.06;5099394;28;20051;-66
2022/02/16 09:05:45;;;;;;;1.70;1.60;;;;;;;7.87;81.53;98333.63;5114365;28;19922;-65
2022/02/16 09:08:29;;;;;;;;;;;;;;;7.87;81.85;98335.34;5114551;28;20047;-65
2022/02/16 09:11:13;;;;;;;2.08;1.83;;;;;;;7.87;81.75;98350.84;5098850;28;19926;-65
2022/02/16 09:13:57;;;;;;;2.22;2.13;;;;;;;7.87;81.80;98349.09;5113981;28;20086;-66
2022/02/16 09:16:41;;;;;;;;;;;;;;;7.88;81.75;98343.09;5114456;28;20556;-65
2022/02/16 09:19:25;;;;;;;2.10;1.60;;;;;;;7.87;81.78;98353.41;5114023;28;19960;-65
2022/02/16 09:22:12;;;;;;;1.85;1.75;;;;;;;7.88;81.87;98345.66;5114034;28;20054;-65
2022/02/16 09:24:56;;;;;;;2.10;1.90;;;;;;;7.90;81.86;98349.09;5127740;28;20514;-65
2022/02/16 09:27:41;;;;;;;;;;;;;;;7.89;81.88;98359.44;5099040;28;20046;-65
2022/02/16 09:30:26;;;;;;;2.38;2.28;;;;;;;7.90;81.98;98362.00;5114238;28;19918;-66
2022/02/16 09:33:10;;;;;;;2.50;2.08;;;;;;;7.91;82.02;98347.41;5098752;28;20407;-65
2022/02/16 09:35:55;;;;;;;2.47;2.00;;;;;;;7.93;81.80;98349.09;5113869;28;20042;-66
2022/02/16 09:38:41;;;;;;;2.33;2.13;;;;;;;7.94;82.15;98362.88;5098548;28;20143;-66
2022/02/16 09:41:25;;;;;;;2.10;2.00;;;;;;;7.94;82.12;98365.47;5098582;28;20109;-65
2022/02/16 09:44:14;;;;;;;1.98;1.83;;;;;;;7.97;81.97;98362.00;5113808;28;20126;-65
2022/02/16 09:46:58;;;;;;;3.65;2.28;;;;;;;7.97;81.93;98352.53;5102630;28;20089;-66
2022/02/16 09:49:42;;;;;;;2.25;2.08;;;;;;;7.99;82.07;98362.88;5117770;28;20051;-65
2022/02/16 09:52:27;;;;;;;3.33;2.10;;;;;;;7.99;82.01;98355.13;5118080;28;20128;-65
2022/02/16 09:55:11;;;;;;;1.70;1.60;;;;;;;8.00;82.01;98364.59;5102698;28;20082;-66
2022/02/16 09:57:55;;;;;;;2.10;1.90;;;;;;;8.00;81.97;98352.53;5118083;28;20046;-65
2022/02/16 10:00:59;;;;;;;1.80;1.70;;;;;;;8.01;82.17;98349.09;5117632;28;20100;-66
2022/02/16 10:04:02;;;;;;;1.98;1.88;;;;;;;8.03;82.19;98360.28;5117629;28;20402;-65
2022/02/16 10:06:48;;;;;;;2.05;1.95;;;;;;;8.02;81.98;98355.97;5102379;28;20061;-65
2022/02/16 10:09:35;;;;;;;2.42;2.22;;;;;;;8.04;82.23;98361.13;5117352;28;20055;-65
2022/02/16 10:12:19;;;;;;;2.13;2.03;;;;;;;8.04;82.11;98364.59;5102324;28;20039;-65
2022/02/16 10:15:06;;;;;;;2.97;1.60;;;;;;;8.06;81.93;98378.34;5102281;28;20058;-66
2022/02/16 10:18:16;;;;;;;1.77;1.67;;;;;;;8.07;81.99;98377.50;5101745;28;20043;-66
2022/02/16 10:21:10;;;;;;;4.30;2.10;;;;;;;8.08;81.94;98379.22;5102173;28;20050;-65
2022/02/16 10:23:54;;;;;;;2.35;2.15;;;;;;;8.10;82.19;98388.69;5101449;28;20082;-66
2022/02/16 10:26:50;;;;;;;2.35;2.13;;;;;;;8.11;82.14;98380.03;5117477;28;20043;-65
2022/02/16 10:29:35;;;;;;;2.50;2.10;;;;;;;8.10;82.16;98376.63;5130977;27;20058;-66
2022/02/16 10:32:32;;;;;;;4.20;2.53;;;;;;;8.11;82.28;98375.75;5101911;28;20399;-66
2022/02/16 10:35:16;;;;;;;3.08;2.35;;;;;;;8.12;82.26;98371.44;5101642;28;20547;-66
2022/02/16 10:38:01;;;;;;;2.47;2.28;;;;;;;8.13;82.12;98350.81;5101921;28;20092;-66
2022/02/16 10:40:58;;;;;;;2.55;2.33;;;;;;;8.15;82.41;98356.84;5101794;28;20092;-65
2022/02/16 10:43:42;;;;;;;2.63;2.40;;;;;;;8.16;82.17;98358.56;5101439;28;20096;-66
2022/02/16 10:46:28;;;;;;;2.22;2.03;;;;;;;8.18;82.18;98361.97;5101721;28;20054;-66
2022/02/16 10:49:17;;;;;;;4.55;2.45;;;;;;;8.19;82.26;98373.19;5101412;28;20047;-66
2022/02/16 10:52:06;;;;;;;2.22;2.13;;;;;;;8.20;82.20;98378.31;5100928;28;20417;-66
2022/02/16 10:54:54;;;;;;;6.65;2.60;;;;;;;8.21;82.53;98374.03;5101547;28;20069;-66
2022/02/16 10:57:37;;;;;;;2.40;2.17;;;;;;;8.22;82.36;98366.28;5116899;28;20077;-66
2022/02/16 11:00:21;;;;;;;4.28;2.38;;;;;;;8.22;82.22;98374.03;5116460;28;20113;-66
2022/02/16 11:03:07;;;;;;;6.93;2.92;;;;;;;8.25;82.18;98370.59;5116630;28;20050;-65
2022/02/16 11:05:54;;;;;;;2.47;2.28;;;;;;;8.25;82.32;98370.59;5100845;28;20047;-66
2022/02/16 11:08:38;;;;;;;2.60;2.40;;;;;;;8.27;82.22;98357.69;5101232;28;20054;-66
2022/02/16 11:11:22;;;;;;;;;;;;;;;8.27;82.45;98358.53;5116989;28;20060;-66
2022/02/16 11:14:07;;;;;;;2.72;2.53;;;;;;;8.28;82.51;98361.97;5100881;28;19934;-66
2022/02/16 11:16:52;;;;;;;2.00;1.90;;;;;;;8.28;82.29;98360.25;5100741;28;20054;-66
2022/02/16 11:19:39;;;;;;;2.00;1.90;;;;;;;8.30;82.51;98360.25;5100717;28;20081;-66
2022/02/16 11:22:23;;;;;;;2.45;2.25;;;;;;;8.31;82.44;98365.41;5100691;28;20131;-66
2022/02/16 11:25:29;;;;;;;2.25;2.05;;;;;;;8.31;82.34;98365.41;5101102;28;20051;-66
2022/02/16 11:28:28;;;;;;;5.18;2.30;;;;;;;8.32;82.37;98371.44;5100325;28;20122;-66
2022/02/16 11:31:33;;;;;;;2.45;2.25;;;;;;;8.34;82.60;98361.94;5116037;28;20046;-67
2022/02/16 11:34:24;;;;;;;2.55;2.20;;;;;;;8.34;82.53;98356.78;5116160;28;20517;-67
2022/02/16 11:37:11;;;;;;;2.00;1.90;;;;;;;8.37;82.42;98367.13;5100662;28;20054;-66
2022/02/16 11:40:00;;;;;;;3.40;1.75;;;;;;;8.37;82.54;98367.13;5115633;28;20050;-66
2022/02/16 11:42:46;;;;;;;2.00;1.90;;;;;;;8.38;82.46;98366.25;5100391;28;20101;-66
2022/02/16 11:45:41;;;;;;;4.72;1.60;;;;;;;8.40;82.40;98353.38;5100511;28;20074;-66
2022/02/16 11:48:47;;;;;;;2.28;2.08;;;;;;;8.42;82.58;98356.78;5100338;28;20047;-67
2022/02/16 11:51:35;;;;;;;2.42;2.15;;;;;;;8.41;82.52;98374.00;5100358;28;20058;-67
2022/02/16 11:54:38;;;;;;;2.30;2.10;;;;;;;8.42;82.36;98369.69;5100247;28;20070;-66
2022/02/16 11:57:32;;;;;;;2.45;1.77;;;;;;;8.41;82.64;98348.19;5115567;28;20050;-66
2022/02/16 12:00:18;;;;;;;2.47;2.00;;;;;;;8.43;82.40;98332.69;5100266;28;20108;-66
2022/02/16 12:03:02;;;;;;;2.35;2.15;;;;;;;8.44;82.39;98334.41;5115382;28;20059;-66
2022/02/16 12:06:13;;;;;;;2.25;2.00;;;;;;;8.45;82.49;98325.78;5100247;28;20126;-66
2022/02/16 12:08:58;;;;;;;4.10;2.55;;;;;;;8.45;82.91;98318.91;5099402;28;20043;-66
2022/02/16 12:11:42;;;;;;;4.50;2.63;;;;;;;8.46;82.47;98307.72;5115104;28;20074;-66
2022/02/16 12:14:26;;;;;;;4.47;2.20;;;;;;;8.48;82.78;98324.13;5115250;28;20055;-66
2022/02/16 12:17:10;;;;;;;5.63;2.63;;;;;;;8.49;82.70;98341.28;5099991;28;20077;-66
2022/02/16 12:19:55;;;;;;;3.50;2.60;;;;;;;8.49;82.70;98354.19;5115291;28;20457;-66
2022/02/16 12:22:43;;;;;;;5.80;2.47;;;;;;;8.49;82.75;98349.03;5114632;28;20089;-66
2022/02/16 12:25:28;;;;;;;8.20;3.15;;;;;;;8.49;82.64;98336.13;5099956;28;20051;-66
2022/02/16 12:28:12;;;;;;;;;;;;;;;8.48;82.74;98346.47;5115252;28;20051;-66
2022/02/16 12:30:56;;;;;;;4.57;2.60;;;;;;;8.47;82.41;98348.19;5099647;28;20301;-66
2022/02/16 12:33:40;;;;;;;;;;;;;;;8.47;82.80;98327.53;5115479;28;20100;-67
2022/02/16 12:36:26;;;;;;;7.28;3.00;;;;;;;8.47;82.72;98322.38;5115081;28;20263;-67
2022/02/16 12:39:11;;;;;;;9.07;3.08;;;;;;;8.48;83.01;98313.78;5099364;28;20573;-66
2022/02/16 12:42:02;;;;;;;16.08;4.20;;;;;;;8.48;82.38;98308.63;5115056;28;20065;-66
2022/02/16 12:44:49;;;;;;;11.77;3.63;;;;;;;8.50;82.94;98334.44;5114230;28;20089;-67
2022/02/16 12:47:33;;;;;;;11.70;3.92;;;;;;;8.51;82.68;98336.16;5114492;28;20066;-66
2022/02/16 12:50:17;;;;;;;13.70;3.45;;;;;;;8.51;83.15;98318.06;5114760;28;20050;-67
2022/02/16 12:53:03;;;;;;;13.15;3.60;;;;;;;8.51;82.85;98308.59;5114436;28;20073;-67
2022/02/16 12:55:47;;;;;;;13.18;4.13;;;;;;;8.52;82.89;98288.81;5099203;28;20054;-66
2022/02/16 12:58:31;;;;;;;7.80;3.13;;;;;;;8.52;82.73;98287.06;5114539;28;20101;-66
2022/02/16 13:01:15;;;;;;;10.23;4.13;;;;;;;8.53;82.92;98275.88;5098794;28;20047;-66
2022/02/16 13:04:06;;;;;;;10.35;4.28;;;;;;;8.53;83.01;98288.78;5114119;28;20513;-66
2022/02/16 13:06:54;;;;;;;11.57;3.60;;;;;;;8.57;83.04;98283.63;5099010;28;20555;-66
2022/02/16 13:09:38;;;;;;;8.90;3.92;;;;;;;8.60;82.74;98289.63;5098758;28;20099;-65
2022/02/16 13:12:37;;;;;;;;;;;;;;;8.58;82.86;98273.28;5099448;28;20050;-66
2022/02/16 13:15:24;;;;;;;12.75;3.55;;;;;;;8.61;83.02;98269.84;5099197;28;20435;-66
2022/02/16 13:18:08;;;;;;;12.15;3.80;;;;;;;8.60;83.06;98271.53;5114078;28;20069;-66